• Join FlightAware (Why Join?)
  • Login
  • US Flag 
09:04AM EST


 

Airport Tracker/Info


-or-


 

Live Flight TrackerFlight Track Log ✈ N531RQ ✈ 10-Jul-2013 ✈ KLAS - KGRB

Flight Track Log - Related Links

Times and Time Zones

All times are in EDT time to prevent confusion due to time zone crossing. See the N531RQ flight status page for this flight to view local times or setup timezone preferences in your user account.

Time Position Orientation Groundspeed Altitude Reporting Facility
EDT Latitude Longitude Course Direction KTS MPH feet Rate Location/Type
02:58PM 36.0753 -115.1844 271° West 202 232 3,200  Level Los Angeles Center
02:59PM 36.0764 -115.2586 271° West 214 246 5,600 2,400 Climbing Los Angeles Center
03:00PM 36.1147 -115.2964 321° Northwest 234 269 7,800 2,460 Climbing Los Angeles Center
03:01PM 36.1756 -115.2581 27° Northeast 240 276 10,700 1,980 Climbing Los Angeles Center
03:02PM 36.1917 -115.2022 70° East 243 280 11,900 1,320 Climbing Los Angeles Center
03:04PM 36.1986 -114.9733 88° East 315 362 14,800 1,500 Climbing Los Angeles Center
03:05PM 36.1997 -114.8353 89° East 331 381 16,600 1,500 Climbing Los Angeles Center
03:06PM 36.2006 -114.7194 89° East 336 387 18,000 1,380 Climbing Los Angeles Center
03:07PM 36.1983 -114.5997 91° East 344 396 19,500 1,440 Climbing Los Angeles Center
03:08PM 36.1956 -114.4819 92° East 344 396 21,000 1,200 Climbing Los Angeles Center
03:09PM 36.1944 -114.3586 91° East 355 409 22,000 660 Climbing Los Angeles Center
03:10PM 36.1933 -114.2278 91° East 376 433 22,400 720 Climbing Los Angeles Center
03:11PM 36.1714 -114.0808 100° East 372 428 23,600 1,260 Climbing Los Angeles Center
03:12PM 36.1831 -113.9578 83° East 367 422 25,100 1,620 Climbing Los Angeles Center
03:13PM 36.2253 -113.8417 66° East 370 426 27,000 1,980 Climbing Los Angeles Center
03:14PM 36.2628 -113.7336 67° East 347 399 29,300 1,800 Climbing Los Angeles Center
03:15PM 36.2986 -113.6297 67° East 330 380 30,800 1,380 Climbing Los Angeles Center
03:16PM 36.3361 -113.5236 66° East 335 386 32,200 1,320 Climbing Los Angeles Center
03:17PM 36.3814 -113.3919 67° East 344 396 33,600 1,140 Climbing Los Angeles Center
03:18PM 36.4203 -113.2792 67° East 353 406 34,600 660 Climbing Los Angeles Center
03:19PM 36.4592 -113.1639 67° East 369 425 35,000 180 Climbing Los Angeles Center
03:20PM 36.5036 -113.0364 67° East 395 455 35,000  Level Los Angeles Center
03:21PM 36.5600 -112.8731 67° East 425 489 35,000 240 Level Los Angeles Center
03:23PM 36.6056 -112.7322 68° East 437 503 35,600 780 Climbing Los Angeles Center
03:24PM 36.6606 -112.5675 67° East 433 498 36,800 960 Climbing Los Angeles Center
03:25PM 36.7061 -112.4358 67° East 423 487 37,700 900 Climbing Los Angeles Center
03:26PM 36.7492 -112.3053 68° East 415 478 38,700 1,020 Climbing Los Angeles Center
03:27PM 36.8008 -112.1506 67° East 408 470 39,900 960 Climbing Los Angeles Center
03:28PM 36.8606 -112.0383 56° Northeast 399 459 40,800 480 Climbing Los Angeles Center
03:29PM 36.9217 -111.9636 44° Northeast 389 448 41,000 60 Climbing Los Angeles Center
03:30PM 37.0167 -111.8419 46° Northeast 401 461 41,000  Level Los Angeles Center
03:31PM 37.0994 -111.7356 46° Northeast 421 484 41,000  Level Los Angeles Center
03:32PM 37.1844 -111.6272 45° Northeast 434 499 41,000  Level Los Angeles Center
03:33PM 37.2850 -111.4967 46° Northeast 436 502 41,000  Level Los Angeles Center
03:34PM 37.3694 -111.3861 46° Northeast 438 504 41,000  Level Los Angeles Center
03:35PM 37.4536 -111.2761 46° Northeast 438 504 41,000  Level Los Angeles Center
03:36PM 37.5375 -111.1653 46° Northeast 442 509 41,000  Level Denver Center
03:38PM 37.6719 -110.9892 46° Northeast 438 504 41,000  Level Denver Center
03:39PM 37.7558 -110.8772 47° Northeast 440 506 41,000  Level Denver Center
03:40PM 37.8236 -110.7883 46° Northeast 440 506 41,000  Level Denver Center
03:41PM 37.9239 -110.6539 47° Northeast 438 504 41,000  Level Denver Center
03:42PM 38.0194 -110.5261 46° Northeast 436 502 41,000  Level Denver Center
03:43PM 38.0994 -110.4175 47° Northeast 439 505 41,000  Level Denver Center
03:44PM 38.1794 -110.3103 46° Northeast 438 504 41,000  Level Salt Lake Center
03:45PM 38.2728 -110.1847 47° Northeast 438 504 41,000  Level Salt Lake Center
03:46PM 38.3525 -110.0772 47° Northeast 437 503 41,000  Level Salt Lake Center
03:47PM 38.4439 -109.9536 47° Northeast 431 496 41,000  Level Salt Lake Center
03:48PM 38.5219 -109.8472 47° Northeast 428 493 41,000  Level Salt Lake Center
03:49PM 38.5997 -109.7414 47° Northeast 428 493 41,000  Level Salt Lake Center
03:50PM 38.7150 -109.5800 48° Northeast 428 493 41,000  Level Denver Center
03:51PM 38.8031 -109.4539 48° Northeast 423 487 41,000  Level Denver Center
03:52PM 38.8928 -109.3275 48° Northeast 428 493 41,000  Level Denver Center
03:54PM 38.9708 -109.2214 47° Northeast 427 491 41,000  Level Denver Center
03:55PM 39.0611 -109.0953 47° Northeast 431 496 41,000  Level Denver Center
03:56PM 39.1383 -108.9864 48° Northeast 431 496 41,000  Level Denver Center
03:57PM 39.2283 -108.8594 48° Northeast 431 496 41,000  Level Denver Center
03:58PM 39.3047 -108.7486 48° Northeast 433 498 41,000  Level Denver Center
03:59PM 39.3969 -108.6214 47° Northeast 439 505 41,000  Level Denver Center
04:00PM 39.4731 -108.5103 48° Northeast 437 503 41,000  Level Denver Center
04:01PM 39.5778 -108.3628 47° Northeast 453 521 41,000  Level Denver Center
04:02PM 39.6678 -108.2347 48° Northeast 436 502 41,000  Level Denver Center
04:03PM 39.7458 -108.1231 48° Northeast 436 502 41,000  Level Denver Center
04:04PM 39.8200 -108.0119 49° Northeast 430 495 41,000  Level Denver Center
04:05PM 39.9092 -107.8811 48° Northeast 432 497 41,000  Level Denver Center
04:06PM 39.9867 -107.7692 48° Northeast 436 502 41,000  Level Denver Center
04:07PM 40.0756 -107.6372 49° Northeast 435 501 41,000  Level Denver Center
04:08PM 40.1522 -107.5242 48° Northeast 434 499 41,000  Level Denver Center
04:09PM 40.2414 -107.3919 49° Northeast 434 499 41,000  Level Denver Center
04:10PM 40.3175 -107.2792 48° Northeast 432 497 41,000  Level Denver Center
04:11PM 40.4064 -107.1447 49° Northeast 436 502 41,000  Level Denver Center
04:12PM 40.4708 -107.0494 48° Northeast 437 503 41,000  Level Denver Center
04:13PM 40.5589 -106.9178 49° Northeast 441 507 41,000  Level Denver Center
04:15PM 40.6583 -106.7747 47° Northeast 432 497 41,000  Level Denver Center
04:16PM 40.7553 -106.6525 44° Northeast 433 498 41,000  Level Denver Center
04:17PM 40.8517 -106.5272 44° Northeast 436 502 41,000  Level Denver Center
04:18PM 40.9319 -106.4197 45° Northeast 434 499 41,000  Level Denver Center
04:19PM 41.0264 -106.2928 45° Northeast 435 501 41,000  Level Denver Center
04:20PM 41.1106 -106.1836 44° Northeast 439 505 41,000  Level Denver Center
04:21PM 41.2222 -106.0314 46° Northeast 437 503 41,000  Level Denver Center
04:22PM 41.3044 -105.9239 44° Northeast 433 498 41,000  Level Denver Center
04:23PM 41.4000 -105.7975 45° Northeast 434 499 41,000  Level Denver Center
04:24PM 41.4828 -105.6878 45° Northeast 435 501 41,000  Level Denver Center
04:25PM 41.5653 -105.5783 45° Northeast 436 502 41,000  Level Denver Center
04:26PM 41.6642 -105.4533 43° Northeast 438 504 41,000  Level Denver Center
04:27PM 41.7472 -105.3442 44° Northeast 437 503 41,000  Level Denver Center
04:28PM 41.8453 -105.2206 43° Northeast 435 501 41,000  Level Denver Center
04:29PM 41.9297 -105.1136 43° Northeast 437 503 41,000  Level Denver Center
04:30PM 42.0172 -104.9781 49° Northeast 434 499 41,000  Level Denver Center
04:31PM 42.0550 -104.8222 72° East 455 524 41,000  Level Denver Center
04:32PM 42.0972 -104.6392 73° East 460 529 41,000  Level Denver Center
04:33PM 42.1331 -104.4800 73° East 467 537 41,000  Level Denver Center
04:34PM 42.1731 -104.2933 74° East 467 537 41,000  Level Denver Center
04:35PM 42.2089 -104.1342 73° East 468 539 41,000  Level Denver Center
04:36PM 42.2503 -103.9475 73° East 467 537 41,000  Level Denver Center
04:37PM 42.2850 -103.7878 74° East 466 536 41,000  Level Denver Center
04:38PM 42.3258 -103.6008 73° East 466 536 41,000  Level Denver Center
04:40PM 42.3606 -103.4397 74° East 467 537 41,000  Level Denver Center
04:41PM 42.3997 -103.2539 74° East 464 534 41,000  Level Denver Center
04:42PM 42.4339 -103.0919 74° East 467 537 41,000  Level Denver Center
04:43PM 42.4669 -102.9317 74° East 465 535 41,000  Level Denver Center
04:44PM 42.5050 -102.7453 74° East 462 532 41,000  Level Denver Center
04:45PM 42.5389 -102.5831 74° East 465 535 41,000  Level Denver Center
04:46PM 42.5758 -102.3953 75° East 463 533 41,000  Level Denver Center
04:47PM 42.6078 -102.2333 75° East 464 534 41,000  Level Denver Center
04:48PM 42.6467 -102.0442 74° East 467 537 41,000  Level Denver Center
04:49PM 42.6764 -101.8808 76° East 467 537 41,000  Level Denver Center
04:50PM 42.7158 -101.6961 74° East 462 532 41,000  Level Denver Center
04:51PM 42.7469 -101.5317 76° East 464 534 41,000  Level Denver Center
04:52PM 42.7811 -101.3517 75° East 465 535 41,000  Level Denver Center
04:53PM 42.8125 -101.1783 76° East 467 537 41,000  Level Denver Center
04:54PM 42.8444 -101.0086 76° East 465 535 41,000  Level Denver Center
04:55PM 42.8772 -100.8383 75° East 465 535 41,000  Level Denver Center
04:56PM 42.9150 -100.6361 76° East 461 531 41,000  Level Denver Center
04:57PM 42.9467 -100.4667 76° East 462 532 41,000  Level Denver Center
04:58PM 42.9781 -100.2992 76° East 461 531 41,000  Level Minneapolis Center
05:00PM 43.0394 -99.9547 76° East 466 536 41,000  Level Denver Center
05:01PM 43.0694 -99.7858 76° East 465 535 41,000  Level Minneapolis Center
05:02PM 43.1008 -99.6031 77° East 468 539 41,000  Level Minneapolis Center
05:03PM 43.1294 -99.4386 77° East 470 541 41,000  Level Minneapolis Center
05:04PM 43.1650 -99.2300 77° East 470 541 41,000  Level Minneapolis Center
05:05PM 43.1953 -99.0553 77° East 473 544 41,000  Level Minneapolis Center
05:06PM 43.2244 -98.8778 77° East 475 547 41,000  Level Minneapolis Center
05:07PM 43.2547 -98.7031 77° East 474 545 41,000  Level Minneapolis Center
05:08PM 43.2825 -98.5272 78° East 473 544 41,000  Level Minneapolis Center
05:09PM 43.3122 -98.3511 77° East 476 548 41,000  Level Minneapolis Center
05:10PM 43.3456 -98.1394 78° East 475 547 41,000  Level Minneapolis Center
05:11PM 43.3733 -97.9639 78° East 473 544 41,000  Level Minneapolis Center
05:13PM 43.4028 -97.7889 77° East 472 543 41,000  Level Minneapolis Center
05:14PM 43.4292 -97.6111 78° East 475 547 41,000  Level Minneapolis Center
05:15PM 43.4564 -97.4331 78° East 476 548 41,000  Level Minneapolis Center
05:16PM 43.4886 -97.2208 78° East 474 545 41,000  Level Minneapolis Center
05:17PM 43.5156 -97.0431 78° East 476 548 41,000  Level Minneapolis Center
05:18PM 43.5419 -96.8661 78° East 475 547 41,000  Level Minneapolis Center
05:19PM 43.5683 -96.6886 78° East 476 548 41,000  Level Minneapolis Center
05:20PM 43.5936 -96.5119 79° East 475 547 41,000  Level Minneapolis Center
05:21PM 43.6247 -96.2994 78° East 475 547 41,000  Level Minneapolis Center
05:22PM 43.6494 -96.1214 79° East 477 549 41,000  Level Minneapolis Center
05:23PM 43.6750 -95.9433 79° East 478 550 41,000  Level Minneapolis Center
05:24PM 43.6994 -95.7642 79° East 479 551 41,000  Level Minneapolis Center
05:25PM 43.7189 -95.6219 79° East 477 549 41,000  Level Minneapolis Center
05:26PM 43.7528 -95.3714 79° East 477 549 41,000  Level Minneapolis Center
05:27PM 43.7772 -95.1933 79° East 476 548 41,000  Level Minneapolis Center
05:28PM 43.8003 -95.0136 80° East 477 549 41,000  Level Minneapolis Center
05:29PM 43.8233 -94.8328 80° East 480 552 41,000  Level Minneapolis Center
05:30PM 43.8461 -94.6525 80° East 479 551 41,000  Level Minneapolis Center
05:31PM 43.8697 -94.4725 80° East 478 550 41,000  Level Minneapolis Center
05:32PM 43.8964 -94.2556 80° East 478 550 41,000  Level Minneapolis Center
05:33PM 43.9197 -94.0625 80° East 483 556 41,000  Level Minneapolis Center
05:34PM 43.9422 -93.8814 80° East 481 554 41,000  Level Minneapolis Center
05:35PM 43.9592 -93.7372 81° East 477 549 41,000  Level Minneapolis Center
05:36PM 43.9853 -93.5189 80° East 481 554 41,000  Level Minneapolis Center
05:37PM 44.0067 -93.3381 81° East 480 552 41,000  Level Minneapolis Center
05:38PM 44.0306 -93.1197 81° East 479 551 41,000  Level Minneapolis Center
05:40PM 44.0522 -92.9369 81° East 482 555 41,000  Level Minneapolis Center
05:41PM 44.0761 -92.7197 81° East 479 551 41,000  Level Minneapolis Center
05:42PM 44.0950 -92.5381 82° East 479 551 41,000  Level Minneapolis Center
05:43PM 44.1147 -92.3569 81° East 477 549 41,000  Level Minneapolis Center
05:44PM 44.1342 -92.1744 81° East 479 551 41,000  Level Minneapolis Center
05:45PM 44.1578 -91.9536 81° East 483 556 41,000  Level Minneapolis Center
05:46PM 44.1769 -91.7689 82° East 484 557 41,000  Level Minneapolis Center
05:47PM 44.1989 -91.5494 82° East 480 552 41,000  Level Minneapolis Center
05:48PM 44.2206 -91.3267 82° East 484 557 41,000  Level Minneapolis Center
05:49PM 44.2394 -91.1344 82° East 481 554 41,000 -1,260 Level Minneapolis Center
05:50PM 44.2608 -90.9156 82° East 479 551 38,400 -2,460 Descending Minneapolis Center
05:51PM 44.2772 -90.7333 83° East 476 548 36,000 -2,100 Descending Minneapolis Center
05:52PM 44.2911 -90.5864 82° East 479 551 34,100 -2,160 Descending Minneapolis Center
05:54PM 44.3106 -90.3436 84° East 478 550 31,500 -2,460 Descending Minneapolis Center
05:55PM 44.3269 -90.1619 83° East 473 544 29,000 -2,460 Descending Minneapolis Center
05:56PM 44.3431 -89.9792 83° East 472 543 26,500 -2,460 Descending Minneapolis Center
05:57PM 44.3572 -89.7981 84° East 470 541 24,000 -2,280 Descending Minneapolis Center
05:58PM 44.3706 -89.6481 83° East 467 537 21,900 -2,460 Descending Minneapolis Center
05:59PM 44.3864 -89.4464 84° East 451 519 19,000 -2,640 Descending Minneapolis Center
06:00PM 44.4028 -89.2544 83° East 429 494 16,000 -2,220 Descending Minneapolis Center
06:01PM 44.4181 -89.0625 84° East 412 474 14,000 -1,860 Descending Minneapolis Center
06:02PM 44.4267 -88.9147 85° East 398 458 12,200 -1,920 Descending Minneapolis Center
06:03PM 44.4278 -88.7683 89° East 384 442 10,100 -2,160 Descending Minneapolis Center
06:04PM 44.4242 -88.6244 92° East 334 384 7,400 -2,160 Descending Minneapolis Center
06:05PM 44.4158 -88.4981 95° East 288 331 5,300 -1,620 Descending Minneapolis Center
06:06PM 44.4125 -88.4131 93° East 277 319 4,100 -1,140 Descending Minneapolis Center
06:07PM 44.4097 -88.2928 92° East 267 307 3,000 -900 Descending Minneapolis Center
06:08PM 44.4194 -88.1794 83° East 261 300 2,300 -720 Descending Minneapolis Center
06:10PM 44.4833 -88.1167 74° East  Level FlightAware Approximate
06:17PM 44.4846 -88.1297 74° East  Level Estimated
06:18PM 44.4846 -88.1297 74° East  Level Estimated
06:19PM 44.4846 -88.1297 74° East  Level Estimated
06:20PM 44.4846 -88.1297 74° East  Level Estimated